Taurus — 2CPB4 — position and weather

sailwx.info

Track history (hours):
 
Tides and Currents Weather Stations Pressure Air Temp Water Temp Dewpoint Dewpoint Depression Visibility Wind Speed Wind Dir Waves Ship Positions

Taurus

Last reported at 2015-Jul-02 11:20 UTC. Time now 2015-Jul-04 15:19 UTC.
Position S 18°36' E 118°09'.

Length 292 m; draft 18.3 m.

Type: Cargo ship. MMSI: 235074621.

Date/timePositionNaut miles runAvg speedWind from/ knotsBaromVisibWave heightAir tempDewpointWater temp
2015-Jul-02 11:20S 18°36' E 118°09'910.9
2015-Jul-02 10:30S 18°45' E 118°11'1111.3
2015-Jul-02 09:33S 18°55' E 118°13'1211.6
2015-Jul-02 08:33S 19°07' E 118°16'1211.7
2015-Jul-02 07:33S 19°18' E 118°19'1711.9
2015-Jul-02 06:08S 19°34' E 118°23'  
2015-Jun-24 14:33N 01°15' E 104°07'1313.2
2015-Jun-24 13:33N 01°13' E 103°54'1111.1
2015-Jun-24 12:34N 01°07' E 103°45'10 1.4
2015-Jun-24 05:16N 01°12' E 103°36'7 8.8
2015-Jun-24 04:31N 01°09' E 103°42'7 7.3
2015-Jun-24 03:33N 01°11' E 103°49'8 8.2
2015-Jun-24 02:33N 01°15' E 103°56'1 0.9
2015-Jun-24 01:27N 01°16' E 103°56'0 0.0
2015-Jun-24 00:33N 01°16' E 103°56'0 0.1
2015-Jun-23 23:24N 01°16' E 103°56'0 0.0
2015-Jun-23 22:33N 01°16' E 103°56'0 0.0
2015-Jun-23 21:33N 01°16' E 103°56'0 0.1
2015-Jun-23 20:33N 01°16' E 103°56'0 0.1
2015-Jun-23 19:33N 01°16' E 103°56'0 0.1
2015-Jun-23 19:03N 01°16' E 103°56'  
Track history (hours):
 
Tides and Currents Weather Stations Pressure Air Temp Water Temp Dewpoint Dewpoint Depression Visibility Wind Speed Wind Dir Waves Ship Positions

Taurus

Last reported at 2015-Jul-02 11:20 UTC. Time now 2015-Jul-04 15:19 UTC.
Position S 18°36' E 118°09'.

Length 292 m; draft 18.3 m.

Type: Cargo ship. MMSI: 235074621.

Date/timePositionNaut miles runAvg speedWind from/ knotsBaromVisibWave heightAir tempDewpointWater temp
2015-Jul-02 11:20S 18°36' E 118°09'910.9
2015-Jul-02 10:30S 18°45' E 118°11'1111.3
2015-Jul-02 09:33S 18°55' E 118°13'1211.6
2015-Jul-02 08:33S 19°07' E 118°16'1211.7
2015-Jul-02 07:33S 19°18' E 118°19'1711.9
2015-Jul-02 06:08S 19°34' E 118°23'  
2015-Jun-24 14:33N 01°15' E 104°07'1313.2
2015-Jun-24 13:33N 01°13' E 103°54'1111.1
2015-Jun-24 12:34N 01°07' E 103°45'10 1.4
2015-Jun-24 05:16N 01°12' E 103°36'7 8.8
2015-Jun-24 04:31N 01°09' E 103°42'7 7.3
2015-Jun-24 03:33N 01°11' E 103°49'8 8.2
2015-Jun-24 02:33N 01°15' E 103°56'1 0.9
2015-Jun-24 01:27N 01°16' E 103°56'0 0.0
2015-Jun-24 00:33N 01°16' E 103°56'0 0.1
2015-Jun-23 23:24N 01°16' E 103°56'0 0.0
2015-Jun-23 22:33N 01°16' E 103°56'0 0.0
2015-Jun-23 21:33N 01°16' E 103°56'0 0.1
2015-Jun-23 20:33N 01°16' E 103°56'0 0.1
2015-Jun-23 19:33N 01°16' E 103°56'0 0.1
2015-Jun-23 19:03N 01°16' E 103°56'  

Dump ship's entire track history